sensor_id;sensor_type;location;lat;lon;timestamp;P1;durP1;ratioP1;P2;durP2;ratioP2
67274;SDS011;55463;52.324;5.122;2022-09-20T00:01:19;7.30;;;2.00;;
67274;SDS011;55463;52.324;5.122;2022-09-20T00:03:50;4.88;;;1.90;;
67274;SDS011;55463;52.324;5.122;2022-09-20T00:06:19;7.50;;;1.60;;
67274;SDS011;55463;52.324;5.122;2022-09-20T00:08:46;9.90;;;2.03;;
67274;SDS011;55463;52.324;5.122;2022-09-20T00:11:14;5.70;;;1.80;;
67274;SDS011;55463;52.324;5.122;2022-09-20T00:13:43;3.00;;;1.55;;
67274;SDS011;55463;52.324;5.122;2022-09-20T00:16:14;19.77;;;2.47;;
67274;SDS011;55463;52.324;5.122;2022-09-20T00:18:50;6.30;;;2.00;;
67274;SDS011;55463;52.324;5.122;2022-09-20T00:21:18;6.18;;;1.90;;
67274;SDS011;55463;52.324;5.122;2022-09-20T00:23:45;8.18;;;2.17;;
67274;SDS011;55463;52.324;5.122;2022-09-20T00:26:10;10.75;;;1.88;;
67274;SDS011;55463;52.324;5.122;2022-09-20T00:28:37;8.38;;;1.63;;
67274;SDS011;55463;52.324;5.122;2022-09-20T00:31:02;3.85;;;1.58;;
67274;SDS011;55463;52.324;5.122;2022-09-20T00:33:28;10.57;;;2.63;;
67274;SDS011;55463;52.324;5.122;2022-09-20T00:36:14;11.20;;;2.08;;
67274;SDS011;55463;52.324;5.122;2022-09-20T00:38:40;9.52;;;1.60;;
67274;SDS011;55463;52.324;5.122;2022-09-20T00:41:06;5.60;;;2.10;;
67274;SDS011;55463;52.324;5.122;2022-09-20T00:43:35;5.65;;;1.70;;
67274;SDS011;55463;52.324;5.122;2022-09-20T00:46:05;6.95;;;1.65;;
67274;SDS011;55463;52.324;5.122;2022-09-20T00:48:39;7.38;;;1.92;;
67274;SDS011;55463;52.324;5.122;2022-09-20T00:51:06;8.88;;;1.85;;
67274;SDS011;55463;52.324;5.122;2022-09-20T00:53:39;4.32;;;1.48;;
67274;SDS011;55463;52.324;5.122;2022-09-20T00:56:09;9.85;;;1.98;;
67274;SDS011;55463;52.324;5.122;2022-09-20T01:01:08;5.63;;;1.75;;
67274;SDS011;55463;52.324;5.122;2022-09-20T01:03:34;7.97;;;2.20;;
67274;SDS011;55463;52.324;5.122;2022-09-20T01:06:03;12.82;;;2.33;;
67274;SDS011;55463;52.324;5.122;2022-09-20T01:08:32;9.60;;;2.07;;
67274;SDS011;55463;52.324;5.122;2022-09-20T01:10:59;9.85;;;2.05;;
67274;SDS011;55463;52.324;5.122;2022-09-20T01:13:25;9.05;;;2.38;;
67274;SDS011;55463;52.324;5.122;2022-09-20T01:15:50;12.43;;;3.08;;
67274;SDS011;55463;52.324;5.122;2022-09-20T01:18:16;7.63;;;2.10;;
67274;SDS011;55463;52.324;5.122;2022-09-20T01:20:43;10.40;;;2.00;;
67274;SDS011;55463;52.324;5.122;2022-09-20T01:28:37;7.72;;;1.90;;
67274;SDS011;55463;52.324;5.122;2022-09-20T01:36:24;9.50;;;2.17;;
67274;SDS011;55463;52.324;5.122;2022-09-20T01:42:12;10.93;;;2.28;;
67274;SDS011;55463;52.324;5.122;2022-09-20T01:47:29;7.68;;;2.13;;
67274;SDS011;55463;52.324;5.122;2022-09-20T01:50:28;4.95;;;1.83;;
67274;SDS011;55463;52.324;5.122;2022-09-20T02:07:01;10.10;;;2.13;;
67274;SDS011;55463;52.324;5.122;2022-09-20T02:09:59;5.90;;;2.15;;
67274;SDS011;55463;52.324;5.122;2022-09-20T02:24:29;7.82;;;2.25;;
67274;SDS011;55463;52.324;5.122;2022-09-20T02:43:53;8.70;;;2.10;;
67274;SDS011;55463;52.324;5.122;2022-09-20T02:46:40;8.57;;;2.30;;
67274;SDS011;55463;52.324;5.122;2022-09-20T02:52:13;6.13;;;1.60;;
67274;SDS011;55463;52.324;5.122;2022-09-20T02:55:13;8.07;;;2.40;;
67274;SDS011;55463;52.324;5.122;2022-09-20T02:57:46;8.32;;;1.85;;
67274;SDS011;55463;52.324;5.122;2022-09-20T03:00:22;2.65;;;1.83;;
67274;SDS011;55463;52.324;5.122;2022-09-20T03:05:28;7.68;;;2.00;;
67274;SDS011;55463;52.324;5.122;2022-09-20T03:13:23;9.52;;;2.53;;
67274;SDS011;55463;52.324;5.122;2022-09-20T03:21:44;8.80;;;2.85;;
67274;SDS011;55463;52.324;5.122;2022-09-20T03:27:13;6.70;;;2.00;;
67274;SDS011;55463;52.324;5.122;2022-09-20T03:47:14;5.72;;;1.90;;
67274;SDS011;55463;52.324;5.122;2022-09-20T04:03:53;7.00;;;2.33;;
67274;SDS011;55463;52.324;5.122;2022-09-20T04:06:36;6.35;;;2.50;;
67274;SDS011;55463;52.324;5.122;2022-09-20T04:09:13;5.90;;;2.30;;
67274;SDS011;55463;52.324;5.122;2022-09-20T04:17:51;6.75;;;2.22;;
67274;SDS011;55463;52.324;5.122;2022-09-20T04:23:31;5.57;;;2.28;;
67274;SDS011;55463;52.324;5.122;2022-09-20T04:26:03;5.13;;;1.98;;
67274;SDS011;55463;52.324;5.122;2022-09-20T04:28:34;8.48;;;2.40;;
67274;SDS011;55463;52.324;5.122;2022-09-20T04:34:11;7.38;;;2.00;;
67274;SDS011;55463;52.324;5.122;2022-09-20T05:03:57;9.45;;;2.33;;
67274;SDS011;55463;52.324;5.122;2022-09-20T05:31:13;7.40;;;2.47;;
67274;SDS011;55463;52.324;5.122;2022-09-20T05:39:56;6.75;;;3.22;;
67274;SDS011;55463;52.324;5.122;2022-09-20T05:42:43;9.73;;;2.67;;
67274;SDS011;55463;52.324;5.122;2022-09-20T05:54:06;20.08;;;3.92;;
67274;SDS011;55463;52.324;5.122;2022-09-20T06:02:42;9.38;;;2.53;;
67274;SDS011;55463;52.324;5.122;2022-09-20T06:05:46;8.02;;;2.80;;
67274;SDS011;55463;52.324;5.122;2022-09-20T06:11:30;8.35;;;2.08;;
67274;SDS011;55463;52.324;5.122;2022-09-20T06:17:15;8.07;;;1.70;;
67274;SDS011;55463;52.324;5.122;2022-09-20T06:19:51;5.78;;;1.60;;
67274;SDS011;55463;52.324;5.122;2022-09-20T06:25:02;7.13;;;1.40;;
67274;SDS011;55463;52.324;5.122;2022-09-20T06:27:44;8.50;;;1.52;;
67274;SDS011;55463;52.324;5.122;2022-09-20T06:30:23;14.15;;;1.95;;
67274;SDS011;55463;52.324;5.122;2022-09-20T06:32:55;5.93;;;1.52;;
67274;SDS011;55463;52.324;5.122;2022-09-20T06:35:21;9.90;;;1.77;;
67274;SDS011;55463;52.324;5.122;2022-09-20T06:37:57;11.27;;;1.80;;
67274;SDS011;55463;52.324;5.122;2022-09-20T06:40:54;11.05;;;1.92;;
67274;SDS011;55463;52.324;5.122;2022-09-20T06:43:37;8.55;;;1.83;;
67274;SDS011;55463;52.324;5.122;2022-09-20T06:46:05;10.20;;;1.90;;
67274;SDS011;55463;52.324;5.122;2022-09-20T06:48:31;10.32;;;2.00;;
67274;SDS011;55463;52.324;5.122;2022-09-20T06:50:56;9.13;;;2.10;;
67274;SDS011;55463;52.324;5.122;2022-09-20T06:53:29;5.55;;;1.80;;
67274;SDS011;55463;52.324;5.122;2022-09-20T06:55:56;10.90;;;1.80;;
67274;SDS011;55463;52.324;5.122;2022-09-20T06:58:23;7.30;;;1.27;;
67274;SDS011;55463;52.324;5.122;2022-09-20T07:00:48;7.20;;;1.60;;
67274;SDS011;55463;52.324;5.122;2022-09-20T07:03:14;7.38;;;2.03;;
67274;SDS011;55463;52.324;5.122;2022-09-20T07:05:39;7.03;;;1.65;;
67274;SDS011;55463;52.324;5.122;2022-09-20T07:08:05;11.43;;;2.15;;
67274;SDS011;55463;52.324;5.122;2022-09-20T07:10:30;6.13;;;1.13;;
67274;SDS011;55463;52.324;5.122;2022-09-20T07:12:59;3.20;;;1.08;;
67274;SDS011;55463;52.324;5.122;2022-09-20T07:15:26;3.93;;;1.50;;
67274;SDS011;55463;52.324;5.122;2022-09-20T07:17:53;3.38;;;1.20;;
67274;SDS011;55463;52.324;5.122;2022-09-20T07:20:19;6.03;;;1.40;;
67274;SDS011;55463;52.324;5.122;2022-09-20T07:22:44;2.67;;;0.73;;
67274;SDS011;55463;52.324;5.122;2022-09-20T07:25:10;2.60;;;0.77;;
67274;SDS011;55463;52.324;5.122;2022-09-20T07:27:35;5.25;;;1.00;;
67274;SDS011;55463;52.324;5.122;2022-09-20T07:30:01;3.53;;;1.45;;
67274;SDS011;55463;52.324;5.122;2022-09-20T07:32:26;3.60;;;0.98;;
67274;SDS011;55463;52.324;5.122;2022-09-20T07:34:52;4.45;;;1.73;;
67274;SDS011;55463;52.324;5.122;2022-09-20T07:37:17;8.75;;;1.42;;
67274;SDS011;55463;52.324;5.122;2022-09-20T07:39:43;8.15;;;1.60;;
67274;SDS011;55463;52.324;5.122;2022-09-20T07:42:10;9.38;;;1.95;;
67274;SDS011;55463;52.324;5.122;2022-09-20T07:44:35;9.52;;;1.83;;
67274;SDS011;55463;52.324;5.122;2022-09-20T07:47:03;3.17;;;1.20;;
67274;SDS011;55463;52.324;5.122;2022-09-20T07:49:28;7.63;;;1.13;;
67274;SDS011;55463;52.324;5.122;2022-09-20T07:51:54;4.85;;;1.27;;
67274;SDS011;55463;52.324;5.122;2022-09-20T07:54:19;4.35;;;1.40;;
67274;SDS011;55463;52.324;5.122;2022-09-20T07:56:45;3.47;;;1.00;;
67274;SDS011;55463;52.324;5.122;2022-09-20T07:59:12;5.90;;;1.02;;
67274;SDS011;55463;52.324;5.122;2022-09-20T08:01:37;4.50;;;1.30;;
67274;SDS011;55463;52.324;5.122;2022-09-20T08:04:04;6.90;;;1.30;;
67274;SDS011;55463;52.324;5.122;2022-09-20T08:06:30;2.33;;;0.80;;
67274;SDS011;55463;52.324;5.122;2022-09-20T08:08:56;6.28;;;1.50;;
67274;SDS011;55463;52.324;5.122;2022-09-20T08:11:22;2.53;;;1.20;;
67274;SDS011;55463;52.324;5.122;2022-09-20T08:13:53;6.22;;;1.00;;
67274;SDS011;55463;52.324;5.122;2022-09-20T08:16:19;2.55;;;0.88;;
67274;SDS011;55463;52.324;5.122;2022-09-20T08:18:46;3.15;;;1.10;;
67274;SDS011;55463;52.324;5.122;2022-09-20T08:21:16;5.05;;;1.50;;
67274;SDS011;55463;52.324;5.122;2022-09-20T08:23:43;4.50;;;1.20;;
67274;SDS011;55463;52.324;5.122;2022-09-20T08:26:12;2.17;;;1.15;;
67274;SDS011;55463;52.324;5.122;2022-09-20T08:28:39;1.00;;;0.90;;
67274;SDS011;55463;52.324;5.122;2022-09-20T08:31:07;2.72;;;0.98;;
67274;SDS011;55463;52.324;5.122;2022-09-20T08:33:34;6.68;;;1.30;;
67274;SDS011;55463;52.324;5.122;2022-09-20T08:36:02;3.42;;;1.00;;
67274;SDS011;55463;52.324;5.122;2022-09-20T08:38:28;4.88;;;1.02;;
67274;SDS011;55463;52.324;5.122;2022-09-20T08:41:14;4.28;;;1.00;;
67274;SDS011;55463;52.324;5.122;2022-09-20T08:44:09;4.85;;;1.30;;
67274;SDS011;55463;52.324;5.122;2022-09-20T08:46:49;3.95;;;0.98;;
67274;SDS011;55463;52.324;5.122;2022-09-20T08:49:26;3.05;;;1.00;;
67274;SDS011;55463;52.324;5.122;2022-09-20T08:51:54;4.15;;;1.60;;
67274;SDS011;55463;52.324;5.122;2022-09-20T08:54:22;3.10;;;1.35;;
67274;SDS011;55463;52.324;5.122;2022-09-20T08:56:48;3.55;;;1.10;;
67274;SDS011;55463;52.324;5.122;2022-09-20T08:59:15;5.20;;;1.30;;
67274;SDS011;55463;52.324;5.122;2022-09-20T09:01:44;1.45;;;0.90;;
67274;SDS011;55463;52.324;5.122;2022-09-20T09:04:12;4.70;;;1.50;;
67274;SDS011;55463;52.324;5.122;2022-09-20T09:06:40;6.93;;;1.33;;
67274;SDS011;55463;52.324;5.122;2022-09-20T09:09:06;2.45;;;1.10;;
67274;SDS011;55463;52.324;5.122;2022-09-20T09:11:32;5.30;;;1.52;;
67274;SDS011;55463;52.324;5.122;2022-09-20T09:14:00;4.47;;;1.40;;
67274;SDS011;55463;52.324;5.122;2022-09-20T09:16:54;4.18;;;1.52;;
67274;SDS011;55463;52.324;5.122;2022-09-20T09:19:30;4.32;;;1.52;;
67274;SDS011;55463;52.324;5.122;2022-09-20T09:21:58;5.00;;;1.40;;
67274;SDS011;55463;52.324;5.122;2022-09-20T09:24:26;4.65;;;0.90;;
67274;SDS011;55463;52.324;5.122;2022-09-20T09:29:49;3.03;;;1.35;;
67274;SDS011;55463;52.324;5.122;2022-09-20T09:32:21;6.43;;;1.13;;
67274;SDS011;55463;52.324;5.122;2022-09-20T09:34:49;4.80;;;1.30;;
67274;SDS011;55463;52.324;5.122;2022-09-20T09:37:27;3.80;;;1.48;;
67274;SDS011;55463;52.324;5.122;2022-09-20T09:40:07;4.75;;;1.40;;
67274;SDS011;55463;52.324;5.122;2022-09-20T09:42:46;12.07;;;1.30;;
67274;SDS011;55463;52.324;5.122;2022-09-20T09:45:33;6.97;;;1.20;;
67274;SDS011;55463;52.324;5.122;2022-09-20T09:48:26;6.45;;;1.25;;
67274;SDS011;55463;52.324;5.122;2022-09-20T09:51:07;1.85;;;0.95;;
67274;SDS011;55463;52.324;5.122;2022-09-20T09:53:39;6.35;;;1.13;;
67274;SDS011;55463;52.324;5.122;2022-09-20T10:01:31;3.92;;;1.40;;
67274;SDS011;55463;52.324;5.122;2022-09-20T10:04:08;11.27;;;1.67;;
67274;SDS011;55463;52.324;5.122;2022-09-20T10:06:42;4.72;;;1.10;;
